createdAt,value
2023-04-04T00:00:49.556Z,1004.00
2023-04-04T00:01:49.583Z,1004.01
2023-04-04T00:02:49.840Z,1004.00
2023-04-04T00:03:49.787Z,1004.00
2023-04-04T00:04:49.626Z,1003.97
2023-04-04T00:05:49.629Z,1004.01
2023-04-04T00:06:49.633Z,1004.07
2023-04-04T00:07:49.649Z,1004.04
2023-04-04T00:08:49.650Z,1004.09
2023-04-04T00:09:49.682Z,1004.03
2023-04-04T00:10:49.675Z,1004.02
2023-04-04T00:11:49.701Z,1004.09
2023-04-04T00:12:49.706Z,1004.04
2023-04-04T00:13:49.723Z,1004.02
2023-04-04T00:14:49.739Z,1004.04
2023-04-04T00:15:49.773Z,1003.98
2023-04-04T00:16:49.728Z,1003.94
2023-04-04T00:17:49.767Z,1004.02
2023-04-04T00:18:49.754Z,1003.95
2023-04-04T00:19:49.808Z,1003.94
2023-04-04T00:20:49.797Z,1004.01
2023-04-04T00:21:49.795Z,1004.03
2023-04-04T00:22:49.811Z,1003.92
2023-04-04T00:23:49.815Z,1003.95
2023-04-04T00:24:49.854Z,1004.01
2023-04-04T00:25:49.846Z,1003.98
2023-04-04T00:26:49.858Z,1003.94
2023-04-04T00:27:49.865Z,1003.99
2023-04-04T00:28:49.891Z,1003.93
2023-04-04T00:29:49.908Z,1003.98
2023-04-04T00:30:49.904Z,1003.99
2023-04-04T00:31:49.973Z,1004.05
2023-04-04T00:32:49.972Z,1004.03
2023-04-04T00:33:49.966Z,1004.04
2023-04-04T00:34:49.991Z,1004.00
2023-04-04T00:35:49.992Z,1003.96
2023-04-04T00:36:49.988Z,1004.02
2023-04-04T00:37:49.993Z,1003.95
2023-04-04T00:38:50.009Z,1003.97
2023-04-04T00:39:50.148Z,1003.93
2023-04-04T00:40:50.088Z,1003.91
2023-04-04T00:41:50.052Z,1003.93
2023-04-04T00:42:50.044Z,1003.96
2023-04-04T00:43:50.063Z,1003.96
2023-04-04T00:44:50.070Z,1003.92
2023-04-04T00:45:50.146Z,1003.95
2023-04-04T00:46:50.097Z,1003.96
2023-04-04T00:47:50.200Z,1003.91
2023-04-04T00:48:50.122Z,1003.93
2023-04-04T00:49:50.157Z,1003.94
2023-04-04T00:50:50.145Z,1003.96
2023-04-04T00:51:50.168Z,1003.97
2023-04-04T00:52:50.197Z,1003.99
2023-04-04T00:53:50.303Z,1003.94
2023-04-04T00:54:50.200Z,1003.98
2023-04-04T00:55:50.213Z,1003.94
2023-04-04T00:56:50.242Z,1003.93
2023-04-04T00:57:50.241Z,1003.86
2023-04-04T00:58:50.322Z,1003.90
2023-04-04T00:59:50.253Z,1003.91
2023-04-04T01:00:50.288Z,1003.98
2023-04-04T01:01:50.353Z,1003.89
2023-04-04T01:02:50.337Z,1003.92
2023-04-04T01:03:50.326Z,1003.90
2023-04-04T01:04:50.308Z,1003.88
2023-04-04T01:05:50.304Z,1003.93
2023-04-04T01:06:50.341Z,1003.92
2023-04-04T01:07:50.342Z,1003.89
2023-04-04T01:08:50.349Z,1003.88
2023-04-04T01:09:50.373Z,1003.92
2023-04-04T01:10:50.368Z,1003.90
2023-04-04T01:11:50.386Z,1003.90
2023-04-04T01:12:50.402Z,1003.87
2023-04-04T01:13:50.411Z,1003.84
2023-04-04T01:14:50.427Z,1003.87
2023-04-04T01:15:50.453Z,1003.92
2023-04-04T01:16:50.499Z,1003.94
2023-04-04T01:17:50.497Z,1003.91
2023-04-04T01:18:50.492Z,1003.89
2023-04-04T01:19:50.465Z,1003.96
2023-04-04T01:20:50.493Z,1003.97
2023-04-04T01:21:50.520Z,1003.87
2023-04-04T01:22:50.531Z,1003.88
2023-04-04T01:23:50.531Z,1003.89
2023-04-04T01:24:50.556Z,1003.87
2023-04-04T01:25:50.548Z,1003.89
2023-04-04T01:26:50.597Z,1003.92
2023-04-04T01:28:10.563Z,1003.87
2023-04-04T01:29:10.521Z,1003.85
2023-04-04T01:30:10.552Z,1003.83
2023-04-04T01:31:10.625Z,1003.97
2023-04-04T01:32:10.530Z,1003.90
2023-04-04T01:33:10.720Z,1003.86
2023-04-04T01:34:10.500Z,1003.83
2023-04-04T01:35:10.562Z,1003.91
2023-04-04T01:36:10.600Z,1003.84
2023-04-04T01:37:10.550Z,1003.90
2023-04-04T01:38:10.534Z,1003.93
2023-04-04T01:39:10.526Z,1003.86
2023-04-04T01:40:10.526Z,1003.84
2023-04-04T01:41:10.583Z,1003.88
2023-04-04T01:42:10.559Z,1003.86
2023-04-04T01:43:10.549Z,1003.84
2023-04-04T01:44:10.552Z,1003.87
2023-04-04T01:45:10.545Z,1003.85
2023-04-04T01:46:10.584Z,1003.98
2023-04-04T01:47:10.561Z,1003.97
2023-04-04T01:48:10.554Z,1003.91
2023-04-04T01:49:11.216Z,1003.89
2023-04-04T01:50:10.583Z,1003.92
2023-04-04T01:51:10.564Z,1003.91
2023-04-04T01:52:10.581Z,1003.91
2023-04-04T01:53:10.587Z,1003.90
2023-04-04T01:54:10.537Z,1003.92
2023-04-04T01:55:10.573Z,1003.86
2023-04-04T01:56:10.582Z,1003.81
2023-04-04T01:57:10.568Z,1003.80
2023-04-04T01:58:10.580Z,1003.78
2023-04-04T01:59:10.625Z,1003.85
2023-04-04T02:00:10.603Z,1003.78
2023-04-04T02:01:10.615Z,1003.81
2023-04-04T02:02:10.562Z,1003.84
2023-04-04T02:03:10.551Z,1003.83
2023-04-04T02:04:10.607Z,1003.88
2023-04-04T02:05:10.712Z,1003.77
2023-04-04T02:06:10.723Z,1003.76
2023-04-04T02:07:10.746Z,1003.78
2023-04-04T02:08:10.759Z,1003.79
2023-04-04T02:09:10.767Z,1003.86
2023-04-04T02:10:10.755Z,1003.81
2023-04-04T02:11:10.761Z,1003.76
2023-04-04T02:12:10.831Z,1003.79
2023-04-04T02:13:10.814Z,1003.83
2023-04-04T02:14:10.794Z,1003.75
2023-04-04T02:15:10.839Z,1003.79
2023-04-04T02:16:10.844Z,1003.70
2023-04-04T02:17:10.846Z,1003.83
2023-04-04T02:18:10.842Z,1003.73
2023-04-04T02:19:10.859Z,1003.78
2023-04-04T02:20:10.857Z,1003.77
2023-04-04T02:21:10.926Z,1003.78
2023-04-04T02:22:10.911Z,1003.76
2023-04-04T02:23:10.944Z,1003.74
2023-04-04T02:24:10.919Z,1003.82
2023-04-04T02:25:10.952Z,1003.82
2023-04-04T02:26:10.939Z,1003.81
2023-04-04T02:27:10.955Z,1003.83
2023-04-04T02:28:10.984Z,1003.80
2023-04-04T02:29:11.003Z,1003.76
2023-04-04T02:30:11.006Z,1003.81
2023-04-04T02:31:11.027Z,1003.78
2023-04-04T02:32:11.004Z,1003.76
2023-04-04T02:33:11.045Z,1003.79
2023-04-04T02:34:11.048Z,1003.72
2023-04-04T02:35:11.073Z,1003.81
2023-04-04T02:36:11.145Z,1003.78
2023-04-04T02:37:11.097Z,1003.71
2023-04-04T02:38:11.124Z,1003.71
2023-04-04T02:39:11.118Z,1003.75
2023-04-04T02:40:11.136Z,1003.76
2023-04-04T02:41:11.130Z,1003.74
2023-04-04T02:42:11.138Z,1003.70
2023-04-04T02:43:11.138Z,1003.68
2023-04-04T02:44:11.174Z,1003.66
2023-04-04T02:45:11.200Z,1003.70
2023-04-04T02:46:21.201Z,1003.70
2023-04-04T02:47:11.309Z,1003.70
2023-04-04T02:48:11.257Z,1003.69
2023-04-04T02:49:11.190Z,1003.72
2023-04-04T02:50:11.180Z,1003.68
2023-04-04T02:51:11.190Z,1003.71
2023-04-04T02:52:11.196Z,1003.75
2023-04-04T02:53:11.198Z,1003.71
2023-04-04T02:54:11.182Z,1003.74
2023-04-04T02:55:11.178Z,1003.72
2023-04-04T02:56:11.220Z,1003.76
2023-04-04T02:57:11.178Z,1003.61
2023-04-04T02:58:11.199Z,1003.56
2023-04-04T02:59:11.255Z,1003.62
2023-04-04T03:00:11.194Z,1003.66
2023-04-04T03:01:11.247Z,1003.57
2023-04-04T03:02:11.306Z,1003.55
2023-04-04T03:03:11.429Z,1003.56
2023-04-04T03:04:11.249Z,1003.62
2023-04-04T03:05:11.203Z,1003.55
2023-04-04T03:06:11.188Z,1003.61
2023-04-04T03:07:11.194Z,1003.61
2023-04-04T03:08:11.208Z,1003.61
2023-04-04T03:09:11.215Z,1003.71
2023-04-04T03:10:11.213Z,1003.66
2023-04-04T03:11:11.216Z,1003.57
2023-04-04T03:12:11.201Z,1003.58
2023-04-04T03:13:11.217Z,1003.62
2023-04-04T03:14:11.251Z,1003.65
2023-04-04T03:15:11.203Z,1003.59
2023-04-04T03:16:11.234Z,1003.61
2023-04-04T03:17:11.237Z,1003.55
2023-04-04T03:18:11.285Z,1003.57
2023-04-04T03:19:11.243Z,1003.64
2023-04-04T03:20:11.243Z,1003.59
2023-04-04T03:21:11.220Z,1003.55
2023-04-04T03:22:11.229Z,1003.56
2023-04-04T03:23:11.232Z,1003.52
2023-04-04T03:24:11.255Z,1003.57
2023-04-04T03:25:11.227Z,1003.56
2023-04-04T03:26:11.227Z,1003.53
2023-04-04T03:27:11.219Z,1003.57
2023-04-04T03:28:11.249Z,1003.53
2023-04-04T03:29:11.248Z,1003.55
2023-04-04T03:30:11.265Z,1003.43
2023-04-04T03:31:11.250Z,1003.48
2023-04-04T03:32:11.322Z,1003.47
2023-04-04T03:33:11.288Z,1003.39
2023-04-04T03:34:11.307Z,1003.47
2023-04-04T03:35:11.314Z,1003.39
2023-04-04T03:36:11.378Z,1003.42
2023-04-04T03:37:11.340Z,1003.45
2023-04-04T03:38:11.420Z,1003.42
2023-04-04T03:39:11.362Z,1003.41
2023-04-04T03:40:11.344Z,1003.34
2023-04-04T03:41:11.370Z,1003.40
2023-04-04T03:42:11.376Z,1003.41
2023-04-04T03:43:11.419Z,1003.36
2023-04-04T03:44:11.430Z,1003.42
2023-04-04T03:45:11.437Z,1003.37
2023-04-04T03:46:11.475Z,1003.33
2023-04-04T03:47:11.438Z,1003.30
2023-04-04T03:48:11.454Z,1003.32
2023-04-04T03:49:11.475Z,1003.35
2023-04-04T03:50:11.487Z,1003.24
2023-04-04T03:51:11.466Z,1003.28
2023-04-04T03:52:11.485Z,1003.26
2023-04-04T03:53:11.481Z,1003.33
2023-04-04T03:54:11.534Z,1003.28
2023-04-04T03:55:11.510Z,1003.28
2023-04-04T03:56:11.524Z,1003.28
2023-04-04T03:57:11.526Z,1003.24
2023-04-04T03:58:11.567Z,1003.30
2023-04-04T03:59:11.584Z,1003.30
2023-04-04T04:00:11.573Z,1003.23
2023-04-04T04:01:11.578Z,1003.15
2023-04-04T04:02:11.647Z,1003.33
2023-04-04T04:03:11.830Z,1003.27
2023-04-04T04:04:11.674Z,1003.24
2023-04-04T04:05:11.621Z,1003.26
2023-04-04T04:06:11.645Z,1003.21
2023-04-04T04:07:11.656Z,1003.28
2023-04-04T04:08:11.684Z,1003.19
2023-04-04T04:09:11.721Z,1003.16
2023-04-04T04:10:11.700Z,1003.21
2023-04-04T04:11:11.743Z,1003.22
2023-04-04T04:12:11.706Z,1003.21
2023-04-04T04:13:11.759Z,1003.24
2023-04-04T04:14:11.738Z,1003.27
2023-04-04T04:15:11.800Z,1003.30
2023-04-04T04:16:11.775Z,1003.26
2023-04-04T04:17:11.793Z,1003.18
2023-04-04T04:18:11.783Z,1003.26
2023-04-04T04:19:11.814Z,1003.26
2023-04-04T04:20:11.814Z,1003.18
2023-04-04T04:21:11.805Z,1003.25
2023-04-04T04:22:11.829Z,1003.19
2023-04-04T04:23:11.845Z,1003.23
2023-04-04T04:24:11.852Z,1003.20
2023-04-04T04:25:11.881Z,1003.20
2023-04-04T04:26:11.875Z,1003.26
2023-04-04T04:27:11.886Z,1003.30
2023-04-04T04:28:11.894Z,1003.20
2023-04-04T04:29:11.904Z,1003.22
2023-04-04T04:30:11.963Z,1003.21
2023-04-04T04:31:11.992Z,1003.25
2023-04-04T04:32:11.947Z,1003.31
2023-04-04T04:33:11.999Z,1003.35
2023-04-04T04:34:12.002Z,1003.28
2023-04-04T04:35:12.001Z,1003.32
2023-04-04T04:36:12.046Z,1003.35
2023-04-04T04:37:12.060Z,1003.36
2023-04-04T04:38:12.020Z,1003.32
2023-04-04T04:39:12.027Z,1003.39
2023-04-04T04:40:12.060Z,1003.32
2023-04-04T04:41:12.078Z,1003.34
2023-04-04T04:42:12.079Z,1003.32
2023-04-04T04:43:12.083Z,1003.42
2023-04-04T04:44:12.090Z,1003.43
2023-04-04T04:45:12.140Z,1003.44
2023-04-04T04:46:12.150Z,1003.37
2023-04-04T04:47:12.122Z,1003.40
2023-04-04T04:48:12.164Z,1003.44
2023-04-04T04:49:12.239Z,1003.45
2023-04-04T04:50:12.169Z,1003.45
2023-04-04T04:51:12.185Z,1003.46
2023-04-04T04:52:12.185Z,1003.46
2023-04-04T04:53:12.223Z,1003.46
2023-04-04T04:54:12.254Z,1003.47
2023-04-04T04:55:12.209Z,1003.48
2023-04-04T04:56:12.268Z,1003.55
2023-04-04T04:57:12.258Z,1003.46
2023-04-04T04:58:12.242Z,1003.45
2023-04-04T04:59:12.299Z,1003.52
2023-04-04T05:00:12.321Z,1003.45
2023-04-04T05:01:12.372Z,1003.44
2023-04-04T05:02:12.399Z,1003.47
2023-04-04T05:03:12.383Z,1003.49
2023-04-04T05:04:12.332Z,1003.48
2023-04-04T05:05:12.325Z,1003.48
2023-04-04T05:06:12.392Z,1003.48
2023-04-04T05:07:12.369Z,1003.42
2023-04-04T05:08:12.371Z,1003.48
2023-04-04T05:09:12.437Z,1003.47
2023-04-04T05:10:12.398Z,1003.45
2023-04-04T05:11:12.427Z,1003.40
2023-04-04T05:12:12.435Z,1003.39
2023-04-04T05:13:12.448Z,1003.44
2023-04-04T05:14:12.449Z,1003.46
2023-04-04T05:15:12.464Z,1003.46
2023-04-04T05:16:12.494Z,1003.47
2023-04-04T05:17:12.482Z,1003.43
2023-04-04T05:18:12.497Z,1003.46
2023-04-04T05:19:12.497Z,1003.43
2023-04-04T05:20:12.513Z,1003.40
2023-04-04T05:21:12.519Z,1003.36
2023-04-04T05:22:12.530Z,1003.43
2023-04-04T05:23:12.558Z,1003.40
2023-04-04T05:24:12.555Z,1003.33
2023-04-04T05:25:12.565Z,1003.35
2023-04-04T05:26:12.576Z,1003.37
2023-04-04T05:27:12.602Z,1003.37
2023-04-04T05:28:12.632Z,1003.34
2023-04-04T05:29:12.634Z,1003.32
2023-04-04T05:30:12.662Z,1003.35
2023-04-04T05:31:12.667Z,1003.37
2023-04-04T05:32:12.688Z,1003.41
2023-04-04T05:33:12.722Z,1003.42
2023-04-04T05:34:12.691Z,1003.49
2023-04-04T05:35:12.724Z,1003.42
2023-04-04T05:36:12.792Z,1003.44
2023-04-04T05:37:12.701Z,1003.47
2023-04-04T05:38:12.739Z,1003.43
2023-04-04T05:39:12.732Z,1003.40
2023-04-04T05:40:12.794Z,1003.40
2023-04-04T05:41:12.759Z,1003.45
2023-04-04T05:42:12.785Z,1003.41
2023-04-04T05:43:12.784Z,1003.42
2023-04-04T05:44:12.799Z,1003.43
2023-04-04T05:45:12.839Z,1003.43
2023-04-04T05:46:12.865Z,1003.40
2023-04-04T05:47:12.826Z,1003.42
2023-04-04T05:48:12.840Z,1003.44
2023-04-04T05:49:12.880Z,1003.38
2023-04-04T05:50:12.914Z,1003.39
2023-04-04T05:51:12.931Z,1003.48
2023-04-04T05:52:12.884Z,1003.40
2023-04-04T05:53:12.928Z,1003.40
2023-04-04T05:54:12.951Z,1003.38
2023-04-04T05:55:12.939Z,1003.43
2023-04-04T05:56:12.946Z,1003.40
2023-04-04T05:57:12.951Z,1003.46
2023-04-04T05:58:13.669Z,1003.44
2023-04-04T05:59:13.005Z,1003.46
2023-04-04T06:00:12.990Z,1003.46
2023-04-04T06:01:13.038Z,1003.50
2023-04-04T06:02:13.067Z,1003.44
2023-04-04T06:03:13.151Z,1003.47
2023-04-04T06:04:13.058Z,1003.48
2023-04-04T06:05:13.050Z,1003.42
2023-04-04T06:06:13.127Z,1003.38
2023-04-04T06:07:13.073Z,1003.41
2023-04-04T06:08:13.119Z,1003.40
2023-04-04T06:09:13.110Z,1003.44
2023-04-04T06:10:13.117Z,1003.45
2023-04-04T06:11:13.304Z,1003.46
2023-04-04T06:12:13.135Z,1003.45
2023-04-04T06:13:13.156Z,1003.42
2023-04-04T06:14:15.100Z,1003.41
2023-04-04T06:15:13.186Z,1003.32
2023-04-04T06:16:13.245Z,1003.36
2023-04-04T06:17:13.226Z,1003.37
2023-04-04T06:18:13.232Z,1003.34
2023-04-04T06:19:13.219Z,1003.37
2023-04-04T06:20:13.269Z,1003.35
2023-04-04T06:21:13.250Z,1003.39
2023-04-04T06:22:13.293Z,1003.33
2023-04-04T06:23:13.288Z,1003.40
2023-04-04T06:24:13.279Z,1003.36
2023-04-04T06:25:13.306Z,1003.42
2023-04-04T06:26:13.300Z,1003.36
2023-04-04T06:27:13.343Z,1003.37
2023-04-04T06:28:13.333Z,1003.42
2023-04-04T06:29:13.335Z,1003.43
2023-04-04T06:30:13.349Z,1003.40
2023-04-04T06:31:13.394Z,1003.40
2023-04-04T06:32:13.392Z,1003.38
2023-04-04T06:33:13.387Z,1003.39
2023-04-04T06:34:13.399Z,1003.39
2023-04-04T06:35:13.412Z,1003.41
2023-04-04T06:36:13.480Z,1003.43
2023-04-04T06:37:13.444Z,1003.40
2023-04-04T06:38:13.449Z,1003.39
2023-04-04T06:39:13.514Z,1003.42
2023-04-04T06:40:13.474Z,1003.45
2023-04-04T06:41:13.477Z,1003.39
2023-04-04T06:42:13.503Z,1003.42
2023-04-04T06:43:13.574Z,1003.43
2023-04-04T06:44:13.537Z,1003.48
2023-04-04T06:45:13.523Z,1003.51
2023-04-04T06:46:13.568Z,1003.52
2023-04-04T06:47:13.562Z,1003.57
2023-04-04T06:48:13.560Z,1003.56
2023-04-04T06:49:13.620Z,1003.59
2023-04-04T06:50:13.625Z,1003.61
2023-04-04T06:51:13.617Z,1003.56
2023-04-04T06:52:13.601Z,1003.59
2023-04-04T06:53:13.627Z,1003.64
2023-04-04T06:54:13.626Z,1003.58
2023-04-04T06:55:13.673Z,1003.64
2023-04-04T06:56:13.719Z,1003.61
2023-04-04T06:57:13.669Z,1003.65
2023-04-04T06:58:13.702Z,1003.68
2023-04-04T06:59:13.824Z,1003.68
2023-04-04T07:00:13.712Z,1003.70
2023-04-04T07:01:13.783Z,1003.74
2023-04-04T07:02:13.753Z,1003.72
2023-04-04T07:03:13.840Z,1003.78
2023-04-04T07:04:13.749Z,1003.77
2023-04-04T07:05:13.763Z,1003.77
2023-04-04T07:06:13.773Z,1003.75
2023-04-04T07:07:13.780Z,1003.71
2023-04-04T07:08:13.802Z,1003.75
2023-04-04T07:09:25.978Z,1003.77
2023-04-04T07:10:13.803Z,1003.74
2023-04-04T07:11:13.813Z,1003.67
2023-04-04T07:12:13.798Z,1003.75
2023-04-04T07:13:13.814Z,1003.71
2023-04-04T07:14:13.836Z,1003.66
2023-04-04T07:15:13.824Z,1003.71
2023-04-04T07:16:13.865Z,1003.69
2023-04-04T07:17:24.040Z,1003.71
2023-04-04T07:18:13.812Z,1003.64
2023-04-04T07:19:13.803Z,1003.71
2023-04-04T07:20:13.827Z,1003.68
2023-04-04T07:21:13.832Z,1003.67
2023-04-04T07:22:13.850Z,1003.75
2023-04-04T07:23:13.809Z,1003.63
2023-04-04T07:24:13.830Z,1003.68
2023-04-04T07:25:13.845Z,1003.68
2023-04-04T07:26:13.820Z,1003.71
2023-04-04T07:27:13.830Z,1003.69
2023-04-04T07:28:34.797Z,1003.71
2023-04-04T07:29:34.747Z,1003.72
2023-04-04T07:30:34.740Z,1003.69
2023-04-04T07:31:34.751Z,1003.70
2023-04-04T07:32:34.765Z,1003.68
2023-04-04T07:33:34.741Z,1003.71
2023-04-04T07:34:34.730Z,1003.68
2023-04-04T07:35:34.776Z,1003.61
2023-04-04T07:36:34.754Z,1003.71
2023-04-04T07:37:34.734Z,1003.64
2023-04-04T07:38:34.740Z,1003.71
2023-04-04T07:39:34.766Z,1003.70
2023-04-04T07:40:34.766Z,1003.63
2023-04-04T07:41:34.752Z,1003.61
2023-04-04T07:42:34.730Z,1003.71
2023-04-04T07:43:34.752Z,1003.70
2023-04-04T07:44:34.738Z,1003.62
2023-04-04T07:45:34.770Z,1003.63
2023-04-04T07:46:34.875Z,1003.65
2023-04-04T07:47:34.767Z,1003.55
2023-04-04T07:48:34.758Z,1003.57
2023-04-04T07:49:34.747Z,1003.62
2023-04-04T07:50:34.757Z,1003.63
2023-04-04T07:51:34.765Z,1003.66
2023-04-04T07:52:34.763Z,1003.62
2023-04-04T07:53:34.740Z,1003.61
2023-04-04T07:54:34.746Z,1003.57
2023-04-04T07:55:34.754Z,1003.56
2023-04-04T07:56:34.766Z,1003.58
2023-04-04T07:57:34.766Z,1003.63
2023-04-04T07:58:34.752Z,1003.61
2023-04-04T07:59:34.747Z,1003.52
2023-04-04T08:00:34.756Z,1003.50
2023-04-04T08:01:34.754Z,1003.58
2023-04-04T08:02:34.864Z,1003.58
2023-04-04T08:03:35.164Z,1003.58
2023-04-04T08:04:34.920Z,1003.54
2023-04-04T08:05:34.903Z,1003.57
2023-04-04T08:06:34.910Z,1003.58
2023-04-04T08:07:34.949Z,1003.54
2023-04-04T08:08:35.005Z,1003.56
2023-04-04T08:09:34.953Z,1003.47
2023-04-04T08:10:34.988Z,1003.55
2023-04-04T08:11:34.996Z,1003.54
2023-04-04T08:12:34.991Z,1003.53
2023-04-04T08:13:35.041Z,1003.56
2023-04-04T08:14:35.015Z,1003.54
2023-04-04T08:15:35.059Z,1003.60
2023-04-04T08:16:35.041Z,1003.61
2023-04-04T08:17:35.068Z,1003.56
2023-04-04T08:18:35.085Z,1003.63
2023-04-04T08:19:35.069Z,1003.58
2023-04-04T08:20:35.093Z,1003.64
2023-04-04T08:21:35.094Z,1003.59
2023-04-04T08:22:35.114Z,1003.64
2023-04-04T08:23:35.162Z,1003.57
2023-04-04T08:24:35.145Z,1003.53
2023-04-04T08:25:35.279Z,1003.58
2023-04-04T08:26:35.153Z,1003.52
2023-04-04T08:27:35.169Z,1003.50
2023-04-04T08:28:35.238Z,1003.51
2023-04-04T08:29:35.213Z,1003.50
2023-04-04T08:30:35.238Z,1003.44
2023-04-04T08:31:35.328Z,1003.47
2023-04-04T08:32:35.259Z,1003.42
2023-04-04T08:33:46.747Z,1003.40
2023-04-04T08:34:35.262Z,1003.47
2023-04-04T08:35:35.311Z,1003.39
2023-04-04T08:36:35.299Z,1003.45
2023-04-04T08:37:35.293Z,1003.44
2023-04-04T08:38:35.320Z,1003.37
2023-04-04T08:39:35.299Z,1003.41
2023-04-04T08:40:35.283Z,1003.46
2023-04-04T08:41:35.305Z,1003.44
2023-04-04T08:42:35.293Z,1003.30
2023-04-04T08:43:35.300Z,1003.40
2023-04-04T08:44:35.308Z,1003.34
2023-04-04T08:45:35.300Z,1003.39
2023-04-04T08:46:35.305Z,1003.37
2023-04-04T08:47:35.319Z,1003.33
2023-04-04T08:48:35.321Z,1003.31
2023-04-04T08:49:35.325Z,1003.42
2023-04-04T08:50:35.310Z,1003.35
2023-04-04T08:51:35.299Z,1003.35
2023-04-04T08:52:35.310Z,1003.38
2023-04-04T08:53:35.336Z,1003.40
2023-04-04T08:54:35.345Z,1003.34
2023-04-04T08:55:35.319Z,1003.41
2023-04-04T08:56:35.342Z,1003.34
2023-04-04T08:57:35.350Z,1003.41
2023-04-04T08:58:35.349Z,1003.41
2023-04-04T08:59:35.542Z,1003.34
2023-04-04T09:00:35.317Z,1003.34
2023-04-04T09:01:35.289Z,1003.31
2023-04-04T09:02:35.377Z,1003.41
2023-04-04T09:03:35.361Z,1003.34
2023-04-04T09:04:35.312Z,1003.44
2023-04-04T09:05:35.330Z,1003.36
2023-04-04T09:06:35.336Z,1003.36
2023-04-04T09:08:35.405Z,1003.30
2023-04-04T09:09:35.389Z,1003.31
2023-04-04T09:10:35.401Z,1003.34
2023-04-04T09:11:35.415Z,1003.25
2023-04-04T09:12:35.440Z,1003.32
2023-04-04T09:13:35.424Z,1003.32
2023-04-04T09:14:35.423Z,1003.28
2023-04-04T09:15:35.444Z,1003.27
2023-04-04T09:16:35.467Z,1003.34
2023-04-04T09:17:35.460Z,1003.28
2023-04-04T09:18:35.524Z,1003.36
2023-04-04T09:19:35.493Z,1003.25
2023-04-04T09:20:35.523Z,1003.21
2023-04-04T09:21:35.554Z,1003.33
2023-04-04T09:22:35.539Z,1003.26
2023-04-04T09:23:35.518Z,1003.26
2023-04-04T09:24:35.575Z,1003.26
2023-04-04T09:25:35.540Z,1003.27
2023-04-04T09:26:35.602Z,1003.19
2023-04-04T09:27:35.721Z,1003.24
2023-04-04T09:28:35.608Z,1003.17
2023-04-04T09:29:35.644Z,1003.30
2023-04-04T09:30:35.660Z,1003.27
2023-04-04T09:31:35.703Z,1003.18
2023-04-04T09:32:35.676Z,1003.19
2023-04-04T09:33:35.685Z,1003.14
2023-04-04T09:34:35.679Z,1003.21
2023-04-04T09:35:35.691Z,1003.14
2023-04-04T09:36:35.680Z,1003.14
2023-04-04T09:37:35.704Z,1003.25
2023-04-04T09:38:35.736Z,1003.20
2023-04-04T09:39:35.756Z,1003.14
2023-04-04T09:40:35.761Z,1003.18
2023-04-04T09:41:35.757Z,1003.16
2023-04-04T09:42:35.762Z,1003.13
2023-04-04T09:43:35.990Z,1003.17
2023-04-04T09:44:35.800Z,1003.18
2023-04-04T09:45:35.826Z,1003.12
2023-04-04T09:46:35.861Z,1003.16
2023-04-04T09:47:35.902Z,1003.05
2023-04-04T09:48:35.841Z,1003.02
2023-04-04T09:49:35.866Z,1003.11
2023-04-04T09:50:35.888Z,1003.12
2023-04-04T09:51:35.883Z,1003.11
2023-04-04T09:52:35.960Z,1003.11
2023-04-04T09:53:35.908Z,1003.16
2023-04-04T09:54:40.262Z,1003.13
2023-04-04T09:55:35.908Z,1003.25
2023-04-04T09:56:35.908Z,1003.14
2023-04-04T09:57:35.948Z,1003.12
2023-04-04T09:58:35.967Z,1003.11
2023-04-04T09:59:35.954Z,1003.10
2023-04-04T10:00:35.939Z,1003.05
2023-04-04T10:01:35.959Z,1003.03
2023-04-04T10:02:35.957Z,1003.00
2023-04-04T10:03:35.999Z,1003.07
2023-04-04T10:04:35.982Z,1003.04
2023-04-04T10:05:35.914Z,1003.00
2023-04-04T10:06:35.921Z,1003.00
2023-04-04T10:07:35.936Z,1003.01
2023-04-04T10:08:35.974Z,1003.00
2023-04-04T10:09:35.961Z,1003.01
2023-04-04T10:10:35.936Z,1003.06
2023-04-04T10:11:35.998Z,1002.98
2023-04-04T10:12:35.933Z,1002.90
2023-04-04T10:13:35.954Z,1002.97
2023-04-04T10:14:35.930Z,1002.98
2023-04-04T10:15:35.963Z,1002.96
2023-04-04T10:16:35.931Z,1002.97
2023-04-04T10:17:36.000Z,1002.90
2023-04-04T10:18:35.941Z,1002.96
2023-04-04T10:19:35.960Z,1002.91
2023-04-04T10:20:35.963Z,1002.87
2023-04-04T10:21:36.026Z,1002.94
2023-04-04T10:22:35.997Z,1002.89
2023-04-04T10:23:35.990Z,1002.96
2023-04-04T10:24:35.984Z,1002.96
2023-04-04T10:25:35.990Z,1002.89
2023-04-04T10:26:35.964Z,1002.92
2023-04-04T10:27:35.957Z,1002.90
2023-04-04T10:28:35.997Z,1002.84
2023-04-04T10:29:35.973Z,1002.89
2023-04-04T10:30:35.957Z,1002.95
2023-04-04T10:31:36.001Z,1002.89
2023-04-04T10:32:36.048Z,1002.84
2023-04-04T10:33:35.976Z,1002.86
2023-04-04T10:34:35.918Z,1002.88
2023-04-04T10:35:36.031Z,1002.85
2023-04-04T10:36:35.982Z,1002.83
2023-04-04T10:37:36.003Z,1002.84
2023-04-04T10:38:35.961Z,1002.93
2023-04-04T10:39:35.970Z,1002.93
2023-04-04T10:40:36.027Z,1002.93
2023-04-04T10:41:35.964Z,1002.91
2023-04-04T10:42:35.973Z,1002.88
2023-04-04T10:43:35.991Z,1002.88
2023-04-04T10:44:35.980Z,1002.80
2023-04-04T10:45:36.002Z,1002.78
2023-04-04T10:46:36.028Z,1002.78
2023-04-04T10:47:36.009Z,1002.83
2023-04-04T10:48:35.991Z,1002.78
2023-04-04T10:49:36.021Z,1002.76
2023-04-04T10:50:36.010Z,1002.72
2023-04-04T10:51:45.115Z,1002.78
2023-04-04T10:52:36.032Z,1002.75
2023-04-04T10:53:36.025Z,1002.68
2023-04-04T10:54:35.987Z,1002.88
2023-04-04T10:55:35.990Z,1002.76
2023-04-04T10:56:36.064Z,1002.75
2023-04-04T10:57:36.000Z,1002.69
2023-04-04T10:58:36.045Z,1002.55
2023-04-04T10:59:36.167Z,1002.70
2023-04-04T11:00:36.039Z,1002.70
2023-04-04T11:01:36.010Z,1002.71
2023-04-04T11:02:35.995Z,1002.69
2023-04-04T11:03:36.023Z,1002.63
2023-04-04T11:04:36.092Z,1002.71
2023-04-04T11:05:36.008Z,1002.61
2023-04-04T11:06:36.024Z,1002.60
2023-04-04T11:07:36.012Z,1002.68
2023-04-04T11:08:36.018Z,1002.67
2023-04-04T11:09:36.013Z,1002.57
2023-04-04T11:10:36.036Z,1002.63
2023-04-04T11:11:36.046Z,1002.64
2023-04-04T11:12:36.034Z,1002.58
2023-04-04T11:13:36.047Z,1002.41
2023-04-04T11:14:36.034Z,1002.46
2023-04-04T11:15:36.037Z,1002.43
2023-04-04T11:16:36.096Z,1002.43
2023-04-04T11:17:36.037Z,1002.41
2023-04-04T11:18:36.056Z,1002.46
2023-04-04T11:19:36.041Z,1002.39
2023-04-04T11:20:36.071Z,1002.45
2023-04-04T11:21:36.029Z,1002.40
2023-04-04T11:22:36.024Z,1002.36
2023-04-04T11:23:36.036Z,1002.40
2023-04-04T11:24:36.054Z,1002.36
2023-04-04T11:25:36.075Z,1002.32
2023-04-04T11:26:36.031Z,1002.31
2023-04-04T11:27:36.065Z,1002.30
2023-04-04T11:28:36.066Z,1002.35
2023-04-04T11:29:36.070Z,1002.35
2023-04-04T11:30:36.071Z,1002.28
2023-04-04T11:31:36.119Z,1002.20
2023-04-04T11:32:36.126Z,1002.14
2023-04-04T11:33:36.117Z,1002.24
2023-04-04T11:34:36.061Z,1002.23
2023-04-04T11:35:36.097Z,1002.25
2023-04-04T11:36:36.082Z,1002.24
2023-04-04T11:37:36.067Z,1002.16
2023-04-04T11:38:36.111Z,1002.30
2023-04-04T11:39:36.054Z,1002.32
2023-04-04T11:40:36.033Z,1002.32
2023-04-04T11:41:36.089Z,1002.18
2023-04-04T11:42:36.117Z,1002.27
2023-04-04T11:43:36.069Z,1002.26
2023-04-04T11:44:36.063Z,1002.21
2023-04-04T11:45:36.078Z,1002.11
2023-04-04T11:46:36.165Z,1002.12
2023-04-04T11:47:36.107Z,1002.13
2023-04-04T11:48:36.104Z,1002.08
2023-04-04T11:49:36.081Z,1002.19
2023-04-04T11:50:36.068Z,1002.09
2023-04-04T11:51:36.107Z,1002.13
2023-04-04T11:52:36.079Z,1002.14
2023-04-04T11:53:36.091Z,1002.02
2023-04-04T11:54:36.087Z,1002.11
2023-04-04T11:55:36.083Z,1002.02
2023-04-04T11:56:36.101Z,1001.97
2023-04-04T11:57:36.088Z,1001.99
2023-04-04T11:58:36.098Z,1002.03
2023-04-04T11:59:36.128Z,1002.03
2023-04-04T12:00:36.095Z,1002.00
2023-04-04T12:01:36.116Z,1001.92
2023-04-04T12:02:36.104Z,1002.01
2023-04-04T12:03:36.223Z,1001.88
2023-04-04T12:04:37.344Z,1001.92
2023-04-04T12:05:36.192Z,1001.91
2023-04-04T12:06:36.114Z,1001.90
2023-04-04T12:07:36.083Z,1001.89